Time;durP1;ratioP1;P1;durP2;ratioP2;P2;SDS_P1;SDS_P2;PMS_P1;PMS_P2;Temp;Humidity;BMP_temperature;BMP_pressure;BME280_temperature;BME280_humidity;BME280_pressure;Samples;Min_cycle;Max_cycle;Signal;HPM_P1;HPM_P2
2024/03/09 00:00:32;;;;;;;18.88;8.38;;;;;;;13.53;37.30;100182.38;5031534;28;20033;-64
2024/03/09 00:03:00;;;;;;;16.88;7.75;;;;;;;13.55;37.51;100180.34;5033031;28;20029;-63
2024/03/09 00:05:26;;;;;;;24.42;8.55;;;;;;;13.56;37.93;100192.81;5032926;28;20025;-63
2024/03/09 00:07:56;;;;;;;17.38;8.27;;;;;;;13.55;37.27;100180.34;5033036;28;20040;-63
2024/03/09 00:10:22;;;;;;;20.65;8.25;;;;;;;13.55;36.58;100183.03;5015517;28;20103;-63
2024/03/09 00:12:48;;;;;;;19.00;8.65;;;;;;;13.57;37.58;100172.97;5031607;28;20378;-63
2024/03/09 00:15:15;;;;;;;17.30;8.15;;;;;;;13.60;37.26;100175.31;5031413;28;20473;-63
2024/03/09 00:17:43;;;;;;;17.95;8.90;;;;;;;13.59;37.65;100176.34;5031662;28;20425;-64
2024/03/09 00:20:12;;;;;;;19.50;8.75;;;;;;;13.62;36.74;100176.88;5032903;28;20468;-65
2024/03/09 00:22:39;;;;;;;20.60;8.25;;;;;;;13.63;37.06;100172.31;5032837;28;20048;-62
2024/03/09 00:25:04;;;;;;;16.35;8.10;;;;;;;13.62;36.69;100165.25;5032783;28;20038;-63
2024/03/09 00:27:30;;;;;;;19.48;7.93;;;;;;;13.65;36.63;100173.00;5031378;28;20048;-64
2024/03/09 00:29:55;;;;;;;16.55;8.68;;;;;;;13.68;37.78;100180.75;5014943;28;20029;-64
2024/03/09 00:32:21;;;;;;;20.08;8.10;;;;;;;13.67;37.04;100169.13;5002775;28;20129;-63
2024/03/09 00:34:47;;;;;;;17.50;7.85;;;;;;;13.64;37.46;100164.06;5017907;28;20041;-63
2024/03/09 00:37:13;;;;;;;21.23;8.45;;;;;;;13.63;37.29;100172.31;5012871;28;20030;-63
2024/03/09 00:39:39;;;;;;;16.27;7.97;;;;;;;13.59;37.10;100165.59;5021748;28;20583;-63
2024/03/09 00:42:08;;;;;;;17.38;8.02;;;;;;;13.56;37.11;100160.53;5031488;28;20042;-63
2024/03/09 00:44:35;;;;;;;18.75;7.97;;;;;;;13.55;37.80;100164.22;5032558;28;20057;-63
2024/03/09 00:47:00;;;;;;;15.38;8.10;;;;;;;13.50;38.17;100159.34;5031464;28;20072;-63
2024/03/09 00:49:25;;;;;;;19.33;7.53;;;;;;;13.48;36.76;100155.97;5032659;28;20505;-63
2024/03/09 00:51:51;;;;;;;27.50;9.20;;;;;;;13.45;37.66;100163.53;5032926;28;20033;-63
2024/03/09 00:54:16;;;;;;;15.07;7.80;;;;;;;13.37;37.20;100149.03;5031399;28;20108;-63
2024/03/09 00:56:41;;;;;;;18.65;7.45;;;;;;;13.32;37.75;100148.69;5015301;28;20053;-63
2024/03/09 00:59:07;;;;;;;20.38;7.78;;;;;;;13.27;36.45;100148.34;5031327;28;20087;-62
2024/03/09 01:01:33;;;;;;;22.23;7.93;;;;;;;13.21;36.34;100148.97;5032365;28;20043;-63
2024/03/09 01:03:59;;;;;;;18.20;7.72;;;;;;;13.13;36.98;100135.50;5031280;28;20098;-63
2024/03/09 01:06:25;;;;;;;18.58;7.50;;;;;;;13.09;36.61;100136.00;5014811;28;20057;-63
2024/03/09 01:08:50;;;;;;;15.85;7.55;;;;;;;13.04;36.62;100127.53;5011749;28;20429;-62
2024/03/09 01:11:17;;;;;;;15.43;7.93;;;;;;;12.96;37.55;100128.34;4995475;28;20034;-63
2024/03/09 01:13:44;;;;;;;16.85;7.25;;;;;;;12.93;37.82;100125.13;5011855;28;20026;-63
2024/03/09 01:16:09;;;;;;;19.20;8.48;;;;;;;12.89;37.35;100113.88;5011702;28;20497;-63
2024/03/09 01:18:34;;;;;;;17.75;9.27;;;;;;;12.88;37.54;100122.94;5012951;28;20100;-63
2024/03/09 01:21:00;;;;;;;19.67;8.07;;;;;;;12.89;37.01;100119.25;5011789;28;20057;-64
2024/03/09 01:23:25;;;;;;;18.52;8.38;;;;;;;12.89;38.03;100123.78;4995183;28;20034;-63
2024/03/09 01:25:52;;;;;;;21.55;8.13;;;;;;;12.87;36.93;100110.50;4995723;28;20379;-63
2024/03/09 01:28:17;;;;;;;23.38;8.07;;;;;;;12.89;36.92;100113.03;5016162;28;20030;-63
2024/03/09 01:30:43;;;;;;;16.30;8.13;;;;;;;12.88;37.24;100105.97;5014929;28;20036;-63
2024/03/09 01:33:09;;;;;;;19.20;8.63;;;;;;;12.90;38.13;100110.16;5015881;28;20040;-63
2024/03/09 01:35:34;;;;;;;18.98;8.07;;;;;;;12.92;38.23;100107.34;5016002;28;20034;-63
2024/03/09 01:38:00;;;;;;;19.85;8.85;;;;;;;12.96;37.32;100103.31;5015013;28;20030;-63
2024/03/09 01:40:25;;;;;;;17.30;7.68;;;;;;;12.96;38.08;100098.78;4998571;28;20033;-63
2024/03/09 01:42:51;;;;;;;18.20;7.57;;;;;;;12.99;37.74;100098.47;5030759;28;20465;-63
2024/03/09 01:45:16;;;;;;;21.63;8.05;;;;;;;13.02;37.80;100108.88;5034250;28;20034;-63
2024/03/09 01:47:42;;;;;;;19.52;8.15;;;;;;;13.03;37.92;100090.91;5017648;28;20033;-63
2024/03/09 01:50:10;;;;;;;16.50;8.15;;;;;;;13.09;38.73;100090.31;5017526;28;20117;-63
2024/03/09 01:52:36;;;;;;;20.33;8.00;;;;;;;13.10;37.59;100090.13;5033892;28;20485;-63
2024/03/09 01:55:08;;;;;;;22.20;9.45;;;;;;;13.14;38.30;100096.88;5017399;28;20151;-63
2024/03/09 01:57:33;;;;;;;20.45;8.20;;;;;;;13.17;37.85;100085.78;5033988;28;20037;-63
2024/03/09 01:59:59;;;;;;;23.20;8.13;;;;;;;13.19;37.80;100078.41;5035114;28;20033;-63
2024/03/09 02:02:25;;;;;;;18.63;8.20;;;;;;;13.23;38.20;100085.09;5033668;28;20041;-63
2024/03/09 02:04:51;;;;;;;22.15;9.25;;;;;;;13.25;37.40;100083.13;5035149;28;20096;-62
2024/03/09 02:07:16;;;;;;;18.33;8.90;;;;;;;13.24;38.64;100076.03;5033832;28;20029;-62
2024/03/09 02:09:43;;;;;;;19.90;8.93;;;;;;;13.29;37.99;100078.22;5017581;28;20030;-63
2024/03/09 02:12:13;;;;;;;18.35;8.15;;;;;;;13.27;38.17;100070.34;5033764;28;20026;-62
2024/03/09 02:14:38;;;;;;;17.55;6.93;;;;;;;13.30;38.25;100064.63;5034801;28;20038;-63
2024/03/09 02:17:08;;;;;;;16.15;7.18;;;;;;;13.30;37.81;100064.63;5033643;28;20032;-63
2024/03/09 02:19:38;;;;;;;16.23;8.27;;;;;;;13.32;37.59;100056.38;5035165;28;20038;-63
2024/03/09 02:22:04;;;;;;;18.00;7.88;;;;;;;13.35;38.25;100056.06;5033509;28;20053;-63
2024/03/09 02:24:34;;;;;;;15.00;7.80;;;;;;;13.38;38.92;100058.41;5033387;28;20061;-64
2024/03/09 02:26:59;;;;;;;18.92;7.88;;;;;;;13.36;38.04;100047.84;5034657;28;20033;-64
2024/03/09 02:29:25;;;;;;;16.58;8.07;;;;;;;13.37;37.88;100038.75;5033348;28;20029;-63
2024/03/09 02:31:55;;;;;;;16.23;7.70;;;;;;;13.39;38.35;100036.75;5033670;28;20040;-64
2024/03/09 02:34:21;;;;;;;16.35;7.63;;;;;;;13.41;38.12;100045.47;5033337;28;20481;-63
2024/03/09 02:36:46;;;;;;;13.98;6.97;;;;;;;13.45;38.09;100045.16;5033162;28;20108;-63
2024/03/09 02:39:11;;;;;;;21.20;7.75;;;;;;;13.45;37.56;100045.16;5033324;28;20400;-63
2024/03/09 02:41:37;;;;;;;19.50;8.70;;;;;;;13.44;38.85;100038.94;5034450;28;20497;-63
2024/03/09 02:44:02;;;;;;;18.55;7.60;;;;;;;13.43;38.38;100043.47;5016377;28;20068;-63
2024/03/09 02:46:28;;;;;;;14.18;7.00;;;;;;;13.43;38.66;100036.41;5033085;28;20030;-64
2024/03/09 02:48:53;;;;;;;19.38;8.07;;;;;;;13.43;38.79;100039.09;5034188;28;20033;-63
2024/03/09 02:51:19;;;;;;;16.02;7.63;;;;;;;13.43;39.23;100031.03;5032959;28;20030;-64
2024/03/09 02:53:45;;;;;;;17.00;7.13;;;;;;;13.43;38.40;100026.47;5034064;28;20056;-63
2024/03/09 02:56:12;;;;;;;17.63;7.32;;;;;;;13.43;38.08;100028.34;5032740;28;20448;-63
2024/03/09 02:58:37;;;;;;;18.35;8.32;;;;;;;13.41;38.72;100028.50;5016213;28;20030;-63
2024/03/09 03:01:07;;;;;;;21.73;7.55;;;;;;;13.43;38.60;100031.84;5032523;28;20478;-64
2024/03/09 03:03:57;;;;;;;18.25;8.30;;;;;;;13.41;38.02;100023.97;5033750;28;20068;-63
2024/03/09 03:06:23;;;;;;;21.27;7.40;;;;;;;13.43;38.25;100027.31;5033503;28;20519;-63
2024/03/09 03:08:49;;;;;;;14.00;7.15;;;;;;;13.46;38.52;100022.59;5032531;28;20215;-63
2024/03/09 03:11:18;;;;;;;14.55;7.65;;;;;;;13.46;38.88;100014.53;5032346;28;20037;-63
2024/03/09 03:13:45;;;;;;;17.55;7.78;;;;;;;13.47;37.98;100021.59;5032720;28;20033;-63
2024/03/09 03:16:16;;;;;;;19.25;7.65;;;;;;;13.46;38.72;100011.84;5016462;28;20120;-63
2024/03/09 03:18:42;;;;;;;15.27;7.25;;;;;;;13.45;38.06;100023.63;5032478;28;20033;-63
2024/03/09 03:21:07;;;;;;;17.70;8.00;;;;;;;13.45;38.16;100012.88;5015878;28;20433;-63
2024/03/09 03:23:35;;;;;;;17.33;7.22;;;;;;;13.46;39.05;100015.38;5033507;28;20195;-63
2024/03/09 03:26:01;;;;;;;13.55;6.75;;;;;;;13.47;37.89;100014.38;5016109;28;20576;-64
2024/03/09 03:28:26;;;;;;;13.82;6.25;;;;;;;13.45;38.62;100018.25;5015882;28;20112;-63
2024/03/09 03:30:52;;;;;;;14.38;7.00;;;;;;;13.47;39.25;100017.06;5032328;28;20037;-63
2024/03/09 03:33:20;;;;;;;12.65;6.22;;;;;;;13.49;38.58;100019.56;5033317;28;20049;-63
2024/03/09 03:35:46;;;;;;;23.77;8.25;;;;;;;13.48;38.25;100018.75;5033576;28;20033;-63
2024/03/09 03:38:11;;;;;;;14.25;6.55;;;;;;;13.45;38.78;100013.72;5032128;28;20029;-63
2024/03/09 03:40:37;;;;;;;17.95;7.80;;;;;;;13.49;39.13;100014.19;5032098;28;20037;-64
2024/03/09 03:43:03;;;;;;;14.43;6.88;;;;;;;13.52;39.64;100019.25;5032073;28;20057;-63
2024/03/09 03:45:29;;;;;;;20.73;8.40;;;;;;;13.52;39.16;100016.56;5033333;28;20220;-64
2024/03/09 03:47:55;;;;;;;15.85;6.22;;;;;;;13.53;39.79;100013.72;5033204;28;20034;-64
2024/03/09 03:50:20;;;;;;;17.42;7.25;;;;;;;13.48;38.59;100002.63;5031684;28;20033;-65
2024/03/09 03:52:47;;;;;;;15.48;7.72;;;;;;;13.43;38.93;100006.81;5033147;28;20038;-63
2024/03/09 03:55:12;;;;;;;15.40;7.70;;;;;;;13.38;38.74;99997.38;5031805;28;20117;-64
2024/03/09 03:57:39;;;;;;;14.88;7.05;;;;;;;13.34;39.53;99998.72;5032038;28;20049;-64
2024/03/09 04:00:16;;;;;;;14.90;6.80;;;;;;;13.33;39.34;100015.03;5031937;28;20112;-63
2024/03/09 04:02:41;;;;;;;17.80;7.28;;;;;;;13.27;39.18;100005.78;5016420;28;20510;-63
2024/03/09 04:05:11;;;;;;;18.83;8.45;;;;;;;13.25;39.97;100002.44;5032098;28;20064;-63
2024/03/09 04:07:37;;;;;;;21.42;7.78;;;;;;;13.21;40.17;100001.06;5015743;28;20400;-63
2024/03/09 04:10:03;;;;;;;16.45;7.65;;;;;;;13.16;40.72;100008.81;5015430;28;20041;-63
2024/03/09 04:12:29;;;;;;;19.10;7.95;;;;;;;13.15;40.24;99999.03;5033059;28;20083;-64
2024/03/09 04:14:56;;;;;;;13.55;7.22;;;;;;;13.12;40.47;99991.31;5031873;28;20086;-63
2024/03/09 04:17:22;;;;;;;15.60;6.95;;;;;;;13.09;40.60;99986.25;5031674;28;20031;-63
2024/03/09 04:19:48;;;;;;;18.23;7.95;;;;;;;13.09;40.82;99985.44;5031766;28;20037;-63
2024/03/09 04:22:14;;;;;;;16.67;7.90;;;;;;;13.09;40.30;99977.38;5031493;28;20493;-63
2024/03/09 04:24:44;;;;;;;16.58;6.93;;;;;;;13.11;40.75;99978.03;5032962;28;20092;-64
2024/03/09 04:27:10;;;;;;;18.02;7.40;;;;;;;13.08;40.32;99975.69;5031937;28;20107;-63
2024/03/09 04:29:36;;;;;;;15.05;6.78;;;;;;;13.10;40.97;99971.81;5015402;28;20493;-63
2024/03/09 04:32:01;;;;;;;19.38;7.25;;;;;;;13.12;40.83;99971.66;5031423;28;20038;-63
2024/03/09 04:34:27;;;;;;;15.65;6.45;;;;;;;13.14;40.35;99973.19;5031393;28;20497;-63
2024/03/09 04:36:52;;;;;;;18.05;7.20;;;;;;;13.13;40.56;99966.09;5031638;28;20545;-63
2024/03/09 04:39:19;;;;;;;15.60;7.07;;;;;;;13.16;40.57;99973.00;5032671;28;20060;-63
2024/03/09 04:41:44;;;;;;;14.52;7.03;;;;;;;13.18;40.97;99974.50;5032798;28;20378;-63
2024/03/09 04:44:09;;;;;;;17.88;7.95;;;;;;;13.19;41.12;99976.22;5031377;28;20042;-63
2024/03/09 04:46:36;;;;;;;15.23;6.30;;;;;;;13.21;41.20;99976.88;5032697;28;20033;-63
2024/03/09 04:49:03;;;;;;;14.70;6.90;;;;;;;13.22;40.46;99965.13;5031313;28;20041;-63
2024/03/09 04:51:29;;;;;;;15.80;6.53;;;;;;;13.21;41.10;99958.03;5032743;28;20034;-63
2024/03/09 04:53:54;;;;;;;15.88;7.85;;;;;;;13.20;40.64;99944.78;5031501;28;20117;-62
2024/03/09 04:56:19;;;;;;;16.20;7.03;;;;;;;13.25;40.40;99959.41;5031947;28;20436;-63
2024/03/09 04:58:45;;;;;;;16.65;7.38;;;;;;;13.26;40.91;99955.69;5031308;28;20571;-62
2024/03/09 05:01:10;;;;;;;10.48;6.05;;;;;;;13.30;41.75;99951.66;5032111;28;20509;-62
2024/03/09 05:03:35;;;;;;;14.65;6.43;;;;;;;13.32;40.83;99944.25;5034784;28;20033;-63
2024/03/09 05:06:01;;;;;;;16.75;6.82;;;;;;;13.36;41.15;99955.53;5036269;28;20080;-63
2024/03/09 05:08:26;;;;;;;19.83;7.85;;;;;;;13.36;40.67;99945.63;5036081;28;20057;-63
2024/03/09 05:10:51;;;;;;;15.73;6.47;;;;;;;13.37;40.67;99941.91;5034811;28;20034;-63
2024/03/09 05:13:17;;;;;;;12.75;5.97;;;;;;;13.36;41.08;99940.25;5035956;28;20036;-63
2024/03/09 05:15:42;;;;;;;16.65;6.85;;;;;;;13.40;40.91;99938.88;5036044;28;20083;-62
2024/03/09 05:18:09;;;;;;;13.07;7.05;;;;;;;13.40;41.61;99930.81;5034796;28;20029;-63
2024/03/09 05:20:34;;;;;;;15.48;7.10;;;;;;;13.41;41.57;99928.97;5018340;28;20034;-63
2024/03/09 05:23:06;;;;;;;15.77;7.10;;;;;;;13.41;41.10;99926.28;5035824;28;20559;-63
2024/03/09 05:25:32;;;;;;;16.33;6.50;;;;;;;13.43;41.06;99919.72;5035684;28;20121;-63
2024/03/09 05:27:57;;;;;;;15.48;6.65;;;;;;;13.47;40.56;99930.13;5018022;28;20117;-63
2024/03/09 05:30:25;;;;;;;11.80;6.13;;;;;;;13.50;41.64;99914.50;5034618;28;20108;-63
2024/03/09 05:32:53;;;;;;;14.15;6.65;;;;;;;13.54;41.38;99915.81;5034385;28;20036;-63
2024/03/09 05:35:21;;;;;;;16.60;7.45;;;;;;;13.59;41.29;99915.31;5034323;28;20038;-63
2024/03/09 05:37:49;;;;;;;13.25;7.07;;;;;;;13.64;41.72;99912.97;5017827;28;20033;-63
2024/03/09 05:40:16;;;;;;;13.65;6.13;;;;;;;13.69;40.73;99915.97;5037730;28;20030;-63
2024/03/09 05:42:47;;;;;;;15.15;6.80;;;;;;;13.72;41.40;99915.63;5035705;28;20493;-63
2024/03/09 05:45:18;;;;;;;13.45;6.63;;;;;;;13.75;41.64;99924.22;5018784;28;20034;-66
2024/03/09 05:47:47;;;;;;;13.10;7.05;;;;;;;13.77;41.40;99916.78;5018581;28;20037;-65
2024/03/09 05:50:15;;;;;;;16.35;7.95;;;;;;;13.79;40.63;99913.94;5034108;28;20044;-65
2024/03/09 05:52:41;;;;;;;13.52;6.45;;;;;;;13.77;40.51;99905.19;5033850;28;20030;-64
2024/03/09 05:55:07;;;;;;;14.90;6.93;;;;;;;13.75;41.89;99907.22;5035237;28;20029;-64
2024/03/09 05:57:32;;;;;;;14.30;6.35;;;;;;;13.73;41.64;99909.25;5035372;28;20088;-64
2024/03/09 05:59:58;;;;;;;17.65;7.03;;;;;;;13.75;41.18;99909.91;5035175;28;20033;-65
2024/03/09 06:02:23;;;;;;;11.77;6.32;;;;;;;13.74;40.70;99906.38;5035098;28;20049;-65
2024/03/09 06:04:48;;;;;;;12.15;6.00;;;;;;;13.77;41.11;99910.56;5034424;28;20037;-64
2024/03/09 06:07:14;;;;;;;13.55;6.57;;;;;;;13.76;40.88;99906.22;5035903;28;20461;-65
2024/03/09 06:09:39;;;;;;;11.85;6.57;;;;;;;13.75;41.18;99908.06;5017532;28;20456;-64
2024/03/09 06:12:05;;;;;;;10.02;6.47;;;;;;;13.71;41.09;99903.16;5034678;28;20061;-65
2024/03/09 06:14:30;;;;;;;18.40;6.55;;;;;;;13.68;40.97;99900.84;5017148;28;20467;-65
2024/03/09 06:16:55;;;;;;;13.90;5.82;;;;;;;13.72;41.50;99910.25;5033757;28;20044;-64
2024/03/09 06:19:21;;;;;;;14.07;7.45;;;;;;;13.71;41.66;99917.47;5035113;28;20037;-65
2024/03/09 06:21:46;;;;;;;14.35;7.03;;;;;;;13.72;41.36;99915.63;5034813;28;20029;-64
2024/03/09 06:24:11;;;;;;;11.57;6.90;;;;;;;13.72;41.82;99926.41;5034774;28;20029;-64
2024/03/09 06:26:37;;;;;;;15.52;6.47;;;;;;;13.77;40.98;99926.72;5016937;28;20030;-66
2024/03/09 06:29:02;;;;;;;13.85;6.60;;;;;;;13.77;41.24;99913.25;5034676;28;20088;-65
2024/03/09 06:31:28;;;;;;;13.50;6.55;;;;;;;13.77;41.46;99916.78;5016944;28;20045;-65
2024/03/09 06:33:53;;;;;;;12.18;5.90;;;;;;;13.80;40.67;99921.00;5034565;28;20025;-65
2024/03/09 06:36:18;;;;;;;12.15;6.25;;;;;;;13.86;40.69;99904.16;5034626;28;20041;-65
2024/03/09 06:38:44;;;;;;;17.45;7.15;;;;;;;13.93;41.04;99915.94;5034481;28;20049;-65
2024/03/09 06:41:09;;;;;;;16.48;6.50;;;;;;;14.04;41.39;99915.56;5016709;28;20037;-65
2024/03/09 06:43:36;;;;;;;13.15;6.95;;;;;;;14.05;41.70;99914.53;5016015;28;20052;-66
2024/03/09 06:46:03;;;;;;;14.80;7.43;;;;;;;14.03;41.89;99911.16;5034316;28;20025;-65
2024/03/09 06:48:29;;;;;;;16.33;6.22;;;;;;;14.06;40.81;99921.59;5034260;28;20035;-65
2024/03/09 06:50:55;;;;;;;16.10;6.78;;;;;;;14.20;40.89;99923.56;5032903;28;20092;-65
2024/03/09 06:53:24;;;;;;;15.43;7.35;;;;;;;14.43;40.30;99923.66;5034031;28;20537;-65
2024/03/09 06:55:50;;;;;;;13.70;6.97;;;;;;;14.60;40.89;99921.72;5033265;28;20195;-63
2024/03/09 06:58:17;;;;;;;15.15;7.35;;;;;;;14.78;40.00;99924.97;5033131;28;20056;-63
2024/03/09 07:00:43;;;;;;;15.55;7.28;;;;;;;14.91;40.99;99927.91;5033829;28;20022;-63
2024/03/09 07:03:08;;;;;;;13.05;6.47;;;;;;;14.98;40.25;99926.19;5034030;28;20021;-63
2024/03/09 07:05:36;;;;;;;15.02;7.25;;;;;;;15.11;40.65;99923.72;5016213;28;20021;-63
2024/03/09 07:08:05;;;;;;;14.32;7.55;;;;;;;15.25;40.51;99925.63;5032619;28;20059;-63
2024/03/09 07:10:32;;;;;;;15.55;6.75;;;;;;;15.38;40.73;99922.34;5032851;28;20108;-64
2024/03/09 07:12:57;;;;;;;11.93;6.05;;;;;;;15.47;40.56;99919.38;5032624;28;20035;-63
2024/03/09 07:15:25;;;;;;;12.27;5.97;;;;;;;15.57;40.39;99914.59;5033809;28;20037;-63
2024/03/09 07:17:53;;;;;;;14.50;6.57;;;;;;;15.68;40.33;99919.53;5016138;28;20030;-63
2024/03/09 07:20:23;;;;;;;14.75;7.40;;;;;;;15.82;39.18;99911.63;5032543;28;20129;-63
2024/03/09 07:22:49;;;;;;;15.68;8.10;;;;;;;15.94;39.18;99915.56;5033516;28;20037;-63
2024/03/09 07:25:25;;;;;;;14.02;7.13;;;;;;;16.02;39.21;99915.47;5031790;28;20025;-63
2024/03/09 07:27:51;;;;;;;15.18;7.28;;;;;;;16.13;40.39;99904.19;5016591;28;20033;-63
2024/03/09 07:30:18;;;;;;;18.92;7.63;;;;;;;16.25;40.26;99910.75;5033378;28;20393;-64
2024/03/09 07:32:44;;;;;;;13.82;6.80;;;;;;;16.39;38.77;99909.91;5032184;28;20025;-63
2024/03/09 07:35:18;;;;;;;15.57;7.32;;;;;;;16.56;39.87;99911.41;5033373;28;20524;-64
2024/03/09 07:37:48;;;;;;;12.48;6.60;;;;;;;16.71;38.40;99914.91;5033648;28;20117;-63
2024/03/09 07:40:15;;;;;;;12.63;7.28;;;;;;;16.85;39.07;99905.91;5032058;28;20034;-63
2024/03/09 07:42:41;;;;;;;13.43;7.53;;;;;;;17.07;38.59;99908.63;5031922;28;20036;-64
2024/03/09 07:45:11;;;;;;;16.35;7.30;;;;;;;17.15;38.78;99914.75;5031912;28;20517;-64
2024/03/09 07:47:41;;;;;;;13.68;6.53;;;;;;;17.32;39.41;99908.03;5032163;28;20045;-64
2024/03/09 07:50:13;;;;;;;17.77;7.80;;;;;;;17.49;38.73;99908.59;5033330;28;20040;-63
2024/03/09 07:52:43;;;;;;;13.77;6.63;;;;;;;17.60;38.23;99897.25;5032334;28;20029;-63
2024/03/09 07:55:09;;;;;;;11.90;6.65;;;;;;;17.78;38.23;99900.28;5015960;28;20036;-63
2024/03/09 07:57:34;;;;;;;15.80;6.57;;;;;;;17.91;38.46;99896.81;5031980;28;20033;-63
2024/03/09 07:59:59;;;;;;;13.90;6.93;;;;;;;18.09;37.79;99899.03;5031713;28;20045;-63
2024/03/09 08:02:25;;;;;;;15.43;7.50;;;;;;;18.04;37.80;99884.19;5015133;28;20040;-62
2024/03/09 08:04:51;;;;;;;13.88;7.30;;;;;;;18.07;38.42;99887.53;5031962;28;20037;-63
2024/03/09 08:07:17;;;;;;;14.57;6.60;;;;;;;18.10;37.77;99882.53;5033079;28;20029;-63
2024/03/09 08:09:43;;;;;;;14.43;7.55;;;;;;;18.31;37.60;99879.75;5032979;28;20036;-63
2024/03/09 08:12:08;;;;;;;12.30;7.05;;;;;;;18.08;38.20;99881.91;5033007;28;20105;-63
2024/03/09 08:14:33;;;;;;;13.98;7.20;;;;;;;17.81;38.50;99885.53;5031679;28;20445;-63
2024/03/09 08:16:59;;;;;;;11.00;6.55;;;;;;;17.59;38.83;99892.03;5031821;28;20037;-63
2024/03/09 08:19:25;;;;;;;13.38;6.97;;;;;;;17.37;39.12;99888.47;5031792;28;20049;-62
2024/03/09 08:21:51;;;;;;;13.18;6.85;;;;;;;17.20;38.77;99893.34;5015327;28;20113;-63
2024/03/09 08:24:16;;;;;;;12.73;6.97;;;;;;;17.10;38.88;99882.00;5032160;28;20040;-63
2024/03/09 08:26:45;;;;;;;16.02;7.30;;;;;;;17.06;38.56;99885.28;5031670;28;20033;-63
2024/03/09 08:29:14;;;;;;;12.93;7.55;;;;;;;17.06;38.98;99888.00;5029428;28;20040;-63
2024/03/09 08:31:40;;;;;;;15.45;7.55;;;;;;;17.02;38.31;99890.28;5034180;28;20040;-63
2024/03/09 08:34:06;;;;;;;13.23;6.65;;;;;;;17.00;38.38;99886.91;5033292;28;20033;-63
2024/03/09 08:36:33;;;;;;;14.70;7.93;;;;;;;16.98;38.48;99888.13;5034826;28;20033;-63
2024/03/09 08:38:58;;;;;;;11.27;6.50;;;;;;;16.93;38.30;99886.00;5035463;28;20064;-63
2024/03/09 08:41:23;;;;;;;15.52;6.72;;;;;;;16.94;39.02;99886.84;5035395;28;20068;-63
2024/03/09 08:43:49;;;;;;;12.93;6.80;;;;;;;16.91;38.98;99881.81;5035517;28;20034;-62
2024/03/09 08:46:14;;;;;;;14.15;7.53;;;;;;;16.91;39.46;99881.81;5036423;28;20026;-63
2024/03/09 08:48:40;;;;;;;11.55;6.65;;;;;;;16.87;38.67;99881.38;5035271;28;20074;-63
2024/03/09 08:51:05;;;;;;;15.18;6.95;;;;;;;16.88;39.20;99889.31;5036361;28;20083;-63
2024/03/09 08:53:31;;;;;;;15.15;7.30;;;;;;;17.07;39.03;99878.84;5036434;28;20033;-63
2024/03/09 08:55:56;;;;;;;11.63;6.18;;;;;;;17.09;38.65;99874.91;5036440;28;20589;-63
2024/03/09 08:58:22;;;;;;;11.35;6.80;;;;;;;17.10;37.97;99881.16;5036677;28;20057;-63
2024/03/09 09:00:47;;;;;;;17.45;7.97;;;;;;;17.06;37.69;99877.16;5034658;28;20030;-63
2024/03/09 09:03:15;;;;;;;13.50;7.63;;;;;;;17.04;38.64;99876.53;5018227;28;20034;-64
2024/03/09 09:05:40;;;;;;;12.68;6.93;;;;;;;17.11;38.98;99867.47;5035027;28;20029;-63
2024/03/09 09:08:06;;;;;;;13.68;7.15;;;;;;;17.92;37.65;99860.56;5035151;28;20037;-64
2024/03/09 09:10:31;;;;;;;13.80;6.30;;;;;;;18.55;37.25;99856.69;5034858;28;20037;-64
2024/03/09 09:12:56;;;;;;;13.68;7.68;;;;;;;18.74;37.22;99861.31;5036353;28;20026;-64
2024/03/09 09:15:24;;;;;;;16.13;7.18;;;;;;;18.71;37.49;99853.59;5035049;28;20037;-65
2024/03/09 09:17:50;;;;;;;15.60;8.07;;;;;;;18.69;37.65;99860.28;5034809;28;20037;-65
2024/03/09 09:20:15;;;;;;;13.55;7.07;;;;;;;18.55;38.07;99862.13;5034681;28;20446;-65
2024/03/09 09:22:47;;;;;;;20.08;8.98;;;;;;;18.37;37.83;99859.13;5034660;28;20034;-64
2024/03/09 09:25:13;;;;;;;14.80;6.25;;;;;;;18.25;38.14;99861.56;5034671;28;20053;-64
2024/03/09 09:27:39;;;;;;;15.45;6.90;;;;;;;18.12;38.26;99856.06;5034660;28;20049;-64
2024/03/09 09:30:06;;;;;;;14.55;6.60;;;;;;;18.01;38.37;99860.19;5034617;28;20499;-64
2024/03/09 09:32:31;;;;;;;15.20;7.28;;;;;;;17.88;38.28;99859.28;5017422;28;20052;-64
2024/03/09 09:34:56;;;;;;;13.93;6.10;;;;;;;17.81;38.05;99864.66;5019067;28;20397;-64
2024/03/09 09:37:22;;;;;;;14.13;6.80;;;;;;;17.79;38.92;99860.47;5035790;28;20544;-65
2024/03/09 09:39:49;;;;;;;14.63;7.45;;;;;;;17.78;38.76;99858.81;5035416;28;20409;-64
2024/03/09 09:42:16;;;;;;;14.75;6.53;;;;;;;17.74;37.83;99863.78;5034270;28;20041;-65
2024/03/09 09:44:42;;;;;;;14.57;7.55;;;;;;;17.76;38.33;99861.72;5035389;28;20040;-65
2024/03/09 09:47:10;;;;;;;19.73;7.80;;;;;;;17.79;38.27;99853.19;5016995;28;20404;-64
2024/03/09 09:49:36;;;;;;;15.00;7.68;;;;;;;17.87;38.64;99842.19;5034184;28;20040;-65
2024/03/09 09:52:03;;;;;;;16.85;8.30;;;;;;;18.02;38.52;99839.34;5034003;28;20405;-64
2024/03/09 09:54:30;;;;;;;12.27;7.18;;;;;;;18.22;37.79;99834.88;5035211;28;20117;-65
2024/03/09 09:56:56;;;;;;;15.65;8.10;;;;;;;18.44;37.44;99830.13;5033740;28;20120;-65
2024/03/09 09:59:22;;;;;;;15.27;6.95;;;;;;;18.50;38.06;99842.91;5033994;28;20477;-64
2024/03/09 10:01:47;;;;;;;14.30;7.38;;;;;;;18.50;37.75;99832.91;5017331;28;20076;-64
2024/03/09 10:04:14;;;;;;;16.60;7.85;;;;;;;18.45;37.52;99826.38;5017355;28;20481;-65
2024/03/09 10:06:39;;;;;;;14.80;7.60;;;;;;;18.38;37.64;99820.09;5034166;28;20022;-65
2024/03/09 10:09:04;;;;;;;14.00;6.78;;;;;;;18.31;37.47;99821.97;5017201;28;20109;-65
2024/03/09 10:11:31;;;;;;;13.52;7.50;;;;;;;18.28;37.43;99830.50;5033838;28;20026;-65
2024/03/09 10:14:00;;;;;;;16.38;7.53;;;;;;;18.20;37.52;99828.78;5033708;28;20017;-64
2024/03/09 10:16:29;;;;;;;12.80;6.55;;;;;;;18.20;37.80;99827.97;5033863;28;20017;-64
2024/03/09 10:18:56;;;;;;;15.50;7.18;;;;;;;18.11;37.59;99819.19;5033666;28;20025;-64
2024/03/09 10:21:28;;;;;;;19.58;8.50;;;;;;;18.02;37.80;99823.09;5034763;28;20100;-66
2024/03/09 10:24:04;;;;;;;16.35;6.88;;;;;;;17.93;37.99;99821.59;5033668;28;20446;-64
2024/03/09 10:26:30;;;;;;;12.32;6.65;;;;;;;17.88;38.82;99819.50;5035111;28;20378;-65
2024/03/09 10:28:59;;;;;;;13.52;7.15;;;;;;;17.87;38.82;99820.50;5033895;28;20543;-65
2024/03/09 10:31:25;;;;;;;14.70;6.97;;;;;;;17.89;37.81;99821.19;5033985;28;20048;-65
2024/03/09 10:33:54;;;;;;;14.68;7.07;;;;;;;17.88;38.28;99822.19;5033568;28;20037;-64
2024/03/09 10:36:27;;;;;;;13.07;7.43;;;;;;;17.86;37.83;99818.88;5033642;28;20112;-64
2024/03/09 10:38:56;;;;;;;14.25;7.53;;;;;;;17.85;38.28;99822.59;5033548;28;20083;-63
2024/03/09 10:41:22;;;;;;;14.07;7.40;;;;;;;17.79;38.51;99828.81;5033446;28;20036;-63
2024/03/09 10:43:48;;;;;;;17.73;7.38;;;;;;;17.77;38.47;99819.22;5033303;28;20038;-63
2024/03/09 10:46:18;;;;;;;16.02;7.65;;;;;;;17.78;38.80;99810.88;5033307;28;20492;-63
2024/03/09 10:48:48;;;;;;;14.20;7.93;;;;;;;17.79;38.22;99807.13;5033332;28;20033;-64
2024/03/09 10:51:50;;;;;;;15.75;7.55;;;;;;;17.82;38.17;99805.91;5034082;28;20034;-63
2024/03/09 10:54:24;;;;;;;13.35;7.30;;;;;;;17.86;38.11;99810.72;5017675;28;20105;-64
2024/03/09 10:56:53;;;;;;;12.48;6.88;;;;;;;17.95;38.45;99805.97;5034203;28;20052;-64
2024/03/09 10:59:22;;;;;;;15.95;6.90;;;;;;;18.01;37.53;99806.00;5033083;28;20029;-63
2024/03/09 11:01:49;;;;;;;16.60;7.88;;;;;;;18.07;37.86;99798.09;5034238;28;20072;-63
2024/03/09 11:04:15;;;;;;;17.52;7.78;;;;;;;18.07;37.93;99800.78;5033945;28;20037;-63
2024/03/09 11:06:41;;;;;;;13.55;7.45;;;;;;;18.05;38.56;99795.59;5032957;28;20049;-64
2024/03/09 11:09:11;;;;;;;15.80;6.78;;;;;;;18.01;38.48;99802.44;5032911;28;20026;-64
2024/03/09 11:11:37;;;;;;;16.33;7.30;;;;;;;17.91;38.20;99793.88;5036476;28;20025;-65
2024/03/09 11:14:03;;;;;;;16.15;7.15;;;;;;;17.84;38.46;99792.97;5032936;28;20112;-64
2024/03/09 11:16:29;;;;;;;15.80;7.43;;;;;;;17.80;38.48;99792.56;5032636;28;20119;-64
2024/03/09 11:18:57;;;;;;;13.60;6.47;;;;;;;17.76;38.82;99785.03;5032532;28;20049;-64